sensor_id;sensor_type;location;lat;lon;timestamp;pressure;altitude;pressure_sealevel;temperature;humidity
75745;BME280;74462;51.366;-0.222;2024-01-07T00:00:02;101954.44;;;7.08;64.95
75745;BME280;74462;51.366;-0.222;2024-01-07T00:01:09;101957.20;;;7.09;65.20
75745;BME280;74462;51.366;-0.222;2024-01-07T00:02:14;101958.51;;;7.08;65.04
75745;BME280;74462;51.366;-0.222;2024-01-07T00:03:19;101956.22;;;7.04;64.76
75745;BME280;74462;51.366;-0.222;2024-01-07T00:04:23;101957.23;;;7.05;64.56
75745;BME280;74462;51.366;-0.222;2024-01-07T00:05:27;101961.81;;;7.05;65.06
75745;BME280;74462;51.366;-0.222;2024-01-07T00:06:32;101962.64;;;7.06;65.13
75745;BME280;74462;51.366;-0.222;2024-01-07T00:07:36;101960.61;;;7.04;64.55
75745;BME280;74462;51.366;-0.222;2024-01-07T00:08:41;101967.70;;;7.03;64.20
75745;BME280;74462;51.366;-0.222;2024-01-07T00:09:45;101967.17;;;7.04;64.34
75745;BME280;74462;51.366;-0.222;2024-01-07T00:10:50;101965.68;;;7.05;64.56
75745;BME280;74462;51.366;-0.222;2024-01-07T00:11:54;101967.14;;;7.04;64.24
75745;BME280;74462;51.366;-0.222;2024-01-07T00:12:58;101968.11;;;7.06;64.48
75745;BME280;74462;51.366;-0.222;2024-01-07T00:14:03;101970.94;;;7.06;64.32
75745;BME280;74462;51.366;-0.222;2024-01-07T00:15:09;101971.30;;;7.02;64.18
75745;BME280;74462;51.366;-0.222;2024-01-07T00:16:14;101973.95;;;7.02;64.14
75745;BME280;74462;51.366;-0.222;2024-01-07T00:17:18;101975.43;;;7.01;63.94
75745;BME280;74462;51.366;-0.222;2024-01-07T00:18:22;101976.00;;;7.00;63.81
75745;BME280;74462;51.366;-0.222;2024-01-07T00:19:27;101976.86;;;7.00;63.81
75745;BME280;74462;51.366;-0.222;2024-01-07T00:20:34;101978.09;;;7.00;63.90
75745;BME280;74462;51.366;-0.222;2024-01-07T00:21:38;101979.98;;;6.98;63.50
75745;BME280;74462;51.366;-0.222;2024-01-07T00:22:43;101980.05;;;7.00;63.85
75745;BME280;74462;51.366;-0.222;2024-01-07T00:23:47;101983.92;;;7.00;63.81
75745;BME280;74462;51.366;-0.222;2024-01-07T00:24:51;101982.74;;;6.99;63.77
75745;BME280;74462;51.366;-0.222;2024-01-07T00:25:56;101981.52;;;6.99;63.75
75745;BME280;74462;51.366;-0.222;2024-01-07T00:27:00;101983.33;;;6.98;63.48
75745;BME280;74462;51.366;-0.222;2024-01-07T00:28:05;101987.07;;;6.97;63.37
75745;BME280;74462;51.366;-0.222;2024-01-07T00:29:10;101987.27;;;6.96;62.96
75745;BME280;74462;51.366;-0.222;2024-01-07T00:30:15;101984.86;;;6.92;62.12
75745;BME280;74462;51.366;-0.222;2024-01-07T00:31:19;101987.54;;;6.87;61.77
75745;BME280;74462;51.366;-0.222;2024-01-07T00:32:24;101989.14;;;6.87;62.23
75745;BME280;74462;51.366;-0.222;2024-01-07T00:33:30;101993.30;;;6.84;61.85
75745;BME280;74462;51.366;-0.222;2024-01-07T00:34:34;101992.89;;;6.81;61.97
75745;BME280;74462;51.366;-0.222;2024-01-07T00:35:39;101995.38;;;6.81;61.95
75745;BME280;74462;51.366;-0.222;2024-01-07T00:36:43;101993.58;;;6.82;62.09
75745;BME280;74462;51.366;-0.222;2024-01-07T00:37:48;101996.58;;;6.77;61.84
75745;BME280;74462;51.366;-0.222;2024-01-07T00:38:52;101995.98;;;6.75;60.95
75745;BME280;74462;51.366;-0.222;2024-01-07T00:39:56;101995.73;;;6.69;60.89
75745;BME280;74462;51.366;-0.222;2024-01-07T00:41:01;102000.91;;;6.71;61.13
75745;BME280;74462;51.366;-0.222;2024-01-07T00:42:06;101995.16;;;6.65;61.02
75745;BME280;74462;51.366;-0.222;2024-01-07T00:43:10;101996.70;;;6.66;61.46
75745;BME280;74462;51.366;-0.222;2024-01-07T00:44:15;101999.98;;;6.65;61.43
75745;BME280;74462;51.366;-0.222;2024-01-07T00:45:19;102002.65;;;6.64;61.10
75745;BME280;74462;51.366;-0.222;2024-01-07T00:46:24;102000.84;;;6.65;61.46
75745;BME280;74462;51.366;-0.222;2024-01-07T00:47:29;102001.54;;;6.65;61.62
75745;BME280;74462;51.366;-0.222;2024-01-07T00:48:33;102005.73;;;6.62;60.82
75745;BME280;74462;51.366;-0.222;2024-01-07T00:49:38;102003.29;;;6.61;60.99
75745;BME280;74462;51.366;-0.222;2024-01-07T00:50:43;102002.62;;;6.56;60.44
75745;BME280;74462;51.366;-0.222;2024-01-07T00:51:48;102004.34;;;6.53;60.62
75745;BME280;74462;51.366;-0.222;2024-01-07T00:52:52;102005.02;;;6.54;60.78
75745;BME280;74462;51.366;-0.222;2024-01-07T00:53:57;102004.08;;;6.51;60.46
75745;BME280;74462;51.366;-0.222;2024-01-07T00:55:01;102009.11;;;6.49;60.68
75745;BME280;74462;51.366;-0.222;2024-01-07T00:56:07;102010.50;;;6.45;60.53
75745;BME280;74462;51.366;-0.222;2024-01-07T00:57:12;102013.36;;;6.40;60.69
75745;BME280;74462;51.366;-0.222;2024-01-07T00:58:18;102016.67;;;6.41;61.51
75745;BME280;74462;51.366;-0.222;2024-01-07T00:59:22;102014.66;;;6.38;61.25
75745;BME280;74462;51.366;-0.222;2024-01-07T01:00:27;102016.13;;;6.37;61.54
75745;BME280;74462;51.366;-0.222;2024-01-07T01:01:32;102019.14;;;6.37;61.45
75745;BME280;74462;51.366;-0.222;2024-01-07T01:02:38;102019.88;;;6.36;62.06
75745;BME280;74462;51.366;-0.222;2024-01-07T01:03:42;102018.29;;;6.36;62.16
75745;BME280;74462;51.366;-0.222;2024-01-07T01:04:48;102018.77;;;6.37;62.10
75745;BME280;74462;51.366;-0.222;2024-01-07T01:05:52;102022.50;;;6.32;61.60
75745;BME280;74462;51.366;-0.222;2024-01-07T01:06:57;102020.52;;;6.33;61.82
75745;BME280;74462;51.366;-0.222;2024-01-07T01:08:01;102025.43;;;6.34;61.91
75745;BME280;74462;51.366;-0.222;2024-01-07T01:09:06;102023.00;;;6.29;61.82
75745;BME280;74462;51.366;-0.222;2024-01-07T01:10:11;102024.27;;;6.28;62.06
75745;BME280;74462;51.366;-0.222;2024-01-07T01:11:16;102025.34;;;6.28;61.97
75745;BME280;74462;51.366;-0.222;2024-01-07T01:12:20;102025.32;;;6.28;61.82
75745;BME280;74462;51.366;-0.222;2024-01-07T01:13:25;102024.73;;;6.30;61.75
75745;BME280;74462;51.366;-0.222;2024-01-07T01:14:29;102021.80;;;6.28;61.93
75745;BME280;74462;51.366;-0.222;2024-01-07T01:15:34;102025.61;;;6.26;61.77
75745;BME280;74462;51.366;-0.222;2024-01-07T01:16:38;102023.44;;;6.23;61.56
75745;BME280;74462;51.366;-0.222;2024-01-07T01:17:43;102025.22;;;6.22;61.54
75745;BME280;74462;51.366;-0.222;2024-01-07T01:18:47;102023.38;;;6.20;61.34
75745;BME280;74462;51.366;-0.222;2024-01-07T01:19:52;102025.65;;;6.21;61.84
75745;BME280;74462;51.366;-0.222;2024-01-07T01:20:56;102027.28;;;6.19;61.45
75745;BME280;74462;51.366;-0.222;2024-01-07T01:22:01;102027.26;;;6.20;61.28
75745;BME280;74462;51.366;-0.222;2024-01-07T01:23:05;102028.95;;;6.22;61.72
75745;BME280;74462;51.366;-0.222;2024-01-07T01:24:10;102028.33;;;6.24;61.84
75745;BME280;74462;51.366;-0.222;2024-01-07T01:25:15;102030.55;;;6.25;61.58
75745;BME280;74462;51.366;-0.222;2024-01-07T01:26:20;102029.60;;;6.23;61.37
75745;BME280;74462;51.366;-0.222;2024-01-07T01:27:24;102029.92;;;6.24;61.12
75745;BME280;74462;51.366;-0.222;2024-01-07T01:28:29;102030.73;;;6.25;61.44
75745;BME280;74462;51.366;-0.222;2024-01-07T01:29:33;102030.66;;;6.27;61.93
75745;BME280;74462;51.366;-0.222;2024-01-07T01:30:37;102029.09;;;6.27;61.84
75745;BME280;74462;51.366;-0.222;2024-01-07T01:31:42;102029.11;;;6.26;61.80
75745;BME280;74462;51.366;-0.222;2024-01-07T01:32:46;102031.33;;;6.24;61.72
75745;BME280;74462;51.366;-0.222;2024-01-07T01:33:51;102033.81;;;6.23;61.69
75745;BME280;74462;51.366;-0.222;2024-01-07T01:34:55;102032.13;;;6.22;61.44
75745;BME280;74462;51.366;-0.222;2024-01-07T01:36:03;102031.33;;;6.20;61.01
75745;BME280;74462;51.366;-0.222;2024-01-07T01:37:09;102034.74;;;6.19;61.15
75745;BME280;74462;51.366;-0.222;2024-01-07T01:38:13;102036.15;;;6.18;61.40
75745;BME280;74462;51.366;-0.222;2024-01-07T01:39:18;102033.54;;;6.18;61.28
75745;BME280;74462;51.366;-0.222;2024-01-07T01:40:22;102034.98;;;6.16;61.38
75745;BME280;74462;51.366;-0.222;2024-01-07T01:41:27;102036.06;;;6.16;61.65
75745;BME280;74462;51.366;-0.222;2024-01-07T01:42:31;102038.41;;;6.14;61.43
75745;BME280;74462;51.366;-0.222;2024-01-07T01:43:36;102040.54;;;6.14;61.44
75745;BME280;74462;51.366;-0.222;2024-01-07T01:44:40;102040.96;;;6.12;61.71
75745;BME280;74462;51.366;-0.222;2024-01-07T01:45:45;102038.71;;;6.11;61.54
75745;BME280;74462;51.366;-0.222;2024-01-07T01:46:50;102039.52;;;6.08;61.48
75745;BME280;74462;51.366;-0.222;2024-01-07T01:47:54;102045.00;;;6.08;61.38
75745;BME280;74462;51.366;-0.222;2024-01-07T01:49:00;102042.73;;;6.07;61.69
75745;BME280;74462;51.366;-0.222;2024-01-07T01:50:06;102045.98;;;6.06;61.61
75745;BME280;74462;51.366;-0.222;2024-01-07T01:51:11;102045.61;;;6.06;61.98
75745;BME280;74462;51.366;-0.222;2024-01-07T01:52:15;102047.88;;;6.06;61.95
75745;BME280;74462;51.366;-0.222;2024-01-07T01:53:20;102047.21;;;6.05;61.70
75745;BME280;74462;51.366;-0.222;2024-01-07T01:54:24;102052.61;;;6.03;61.61
75745;BME280;74462;51.366;-0.222;2024-01-07T01:55:29;102047.05;;;6.01;61.70
75745;BME280;74462;51.366;-0.222;2024-01-07T01:56:34;102051.23;;;5.98;61.61
75745;BME280;74462;51.366;-0.222;2024-01-07T01:57:39;102050.53;;;5.98;61.91
75745;BME280;74462;51.366;-0.222;2024-01-07T01:58:44;102053.52;;;5.98;61.92
75745;BME280;74462;51.366;-0.222;2024-01-07T01:59:49;102052.64;;;5.98;62.02
75745;BME280;74462;51.366;-0.222;2024-01-07T02:00:54;102056.65;;;5.99;62.18
75745;BME280;74462;51.366;-0.222;2024-01-07T02:01:59;102054.20;;;5.99;62.15
75745;BME280;74462;51.366;-0.222;2024-01-07T02:03:04;102056.95;;;5.96;62.17
75745;BME280;74462;51.366;-0.222;2024-01-07T02:04:09;102058.89;;;5.96;61.92
75745;BME280;74462;51.366;-0.222;2024-01-07T02:05:14;102060.09;;;5.97;62.09
75745;BME280;74462;51.366;-0.222;2024-01-07T02:06:18;102060.52;;;5.95;61.96
75745;BME280;74462;51.366;-0.222;2024-01-07T02:07:23;102062.37;;;5.93;62.04
75745;BME280;74462;51.366;-0.222;2024-01-07T02:08:28;102060.91;;;5.94;62.15
75745;BME280;74462;51.366;-0.222;2024-01-07T02:09:34;102064.66;;;5.93;62.17
75745;BME280;74462;51.366;-0.222;2024-01-07T02:10:38;102067.50;;;5.92;62.07
75745;BME280;74462;51.366;-0.222;2024-01-07T02:11:42;102068.00;;;5.93;62.37
75745;BME280;74462;51.366;-0.222;2024-01-07T02:12:47;102068.94;;;5.92;62.09
75745;BME280;74462;51.366;-0.222;2024-01-07T02:13:51;102071.76;;;5.92;62.11
75745;BME280;74462;51.366;-0.222;2024-01-07T02:14:56;102070.70;;;5.91;62.48
75745;BME280;74462;51.366;-0.222;2024-01-07T02:16:00;102074.23;;;5.91;62.14
75745;BME280;74462;51.366;-0.222;2024-01-07T02:17:05;102075.69;;;5.90;62.15
75745;BME280;74462;51.366;-0.222;2024-01-07T02:18:09;102076.02;;;5.90;62.07
75745;BME280;74462;51.366;-0.222;2024-01-07T02:19:14;102073.57;;;5.90;61.92
75745;BME280;74462;51.366;-0.222;2024-01-07T02:20:18;102075.14;;;5.90;62.25
75745;BME280;74462;51.366;-0.222;2024-01-07T02:21:23;102073.52;;;5.91;62.44
75745;BME280;74462;51.366;-0.222;2024-01-07T02:22:27;102073.54;;;5.91;62.30
75745;BME280;74462;51.366;-0.222;2024-01-07T02:23:32;102072.82;;;5.91;62.27
75745;BME280;74462;51.366;-0.222;2024-01-07T02:24:36;102071.98;;;5.89;62.07
75745;BME280;74462;51.366;-0.222;2024-01-07T02:25:41;102076.73;;;5.90;62.27
75745;BME280;74462;51.366;-0.222;2024-01-07T02:26:45;102076.88;;;5.85;61.71
75745;BME280;74462;51.366;-0.222;2024-01-07T02:27:50;102073.38;;;5.85;62.00
75745;BME280;74462;51.366;-0.222;2024-01-07T02:28:54;102077.10;;;5.84;61.65
75745;BME280;74462;51.366;-0.222;2024-01-07T02:29:58;102076.44;;;5.83;62.02
75745;BME280;74462;51.366;-0.222;2024-01-07T02:31:03;102074.29;;;5.84;61.95
75745;BME280;74462;51.366;-0.222;2024-01-07T02:32:08;102077.47;;;5.84;62.06
75745;BME280;74462;51.366;-0.222;2024-01-07T02:33:12;102074.68;;;5.83;62.00
75745;BME280;74462;51.366;-0.222;2024-01-07T02:34:17;102076.64;;;5.82;62.14
75745;BME280;74462;51.366;-0.222;2024-01-07T02:35:21;102074.38;;;5.82;62.01
75745;BME280;74462;51.366;-0.222;2024-01-07T02:36:26;102076.90;;;5.80;61.87
75745;BME280;74462;51.366;-0.222;2024-01-07T02:37:30;102076.02;;;5.81;62.22
75745;BME280;74462;51.366;-0.222;2024-01-07T02:38:35;102074.74;;;5.77;62.17
75745;BME280;74462;51.366;-0.222;2024-01-07T02:39:39;102078.11;;;5.77;62.32
75745;BME280;74462;51.366;-0.222;2024-01-07T02:40:44;102078.34;;;5.75;62.34
75745;BME280;74462;51.366;-0.222;2024-01-07T02:41:48;102075.64;;;5.77;62.17
75745;BME280;74462;51.366;-0.222;2024-01-07T02:42:53;102079.19;;;5.76;62.02
75745;BME280;74462;51.366;-0.222;2024-01-07T02:43:59;102078.34;;;5.75;61.97
75745;BME280;74462;51.366;-0.222;2024-01-07T02:45:04;102075.77;;;5.74;61.87
75745;BME280;74462;51.366;-0.222;2024-01-07T02:46:08;102077.80;;;5.71;61.51
75745;BME280;74462;51.366;-0.222;2024-01-07T02:47:13;102080.26;;;5.71;61.73
75745;BME280;74462;51.366;-0.222;2024-01-07T02:48:17;102075.05;;;5.70;61.43
75745;BME280;74462;51.366;-0.222;2024-01-07T02:49:22;102071.94;;;5.67;61.35
75745;BME280;74462;51.366;-0.222;2024-01-07T02:50:26;102073.61;;;5.65;61.25
75745;BME280;74462;51.366;-0.222;2024-01-07T02:51:30;102074.19;;;5.64;61.65
75745;BME280;74462;51.366;-0.222;2024-01-07T02:52:35;102075.83;;;5.62;61.85
75745;BME280;74462;51.366;-0.222;2024-01-07T02:53:39;102074.40;;;5.63;61.92
75745;BME280;74462;51.366;-0.222;2024-01-07T02:54:44;102075.48;;;5.62;62.26
75745;BME280;74462;51.366;-0.222;2024-01-07T02:55:48;102073.83;;;5.59;61.79
75745;BME280;74462;51.366;-0.222;2024-01-07T02:56:53;102075.10;;;5.53;61.55
75745;BME280;74462;51.366;-0.222;2024-01-07T02:57:57;102071.70;;;5.55;61.42
75745;BME280;74462;51.366;-0.222;2024-01-07T02:59:01;102075.57;;;5.55;61.33
75745;BME280;74462;51.366;-0.222;2024-01-07T03:00:08;102074.91;;;5.54;61.49
75745;BME280;74462;51.366;-0.222;2024-01-07T03:01:12;102072.91;;;5.51;61.37
75745;BME280;74462;51.366;-0.222;2024-01-07T03:02:16;102074.28;;;5.52;61.40
75745;BME280;74462;51.366;-0.222;2024-01-07T03:03:21;102078.00;;;5.51;61.21
75745;BME280;74462;51.366;-0.222;2024-01-07T03:04:25;102078.71;;;5.51;61.29
75745;BME280;74462;51.366;-0.222;2024-01-07T03:05:30;102075.80;;;5.49;61.55
75745;BME280;74462;51.366;-0.222;2024-01-07T03:06:35;102081.02;;;5.51;61.59
75745;BME280;74462;51.366;-0.222;2024-01-07T03:07:40;102078.71;;;5.51;61.69
75745;BME280;74462;51.366;-0.222;2024-01-07T03:08:45;102080.46;;;5.51;61.46
75745;BME280;74462;51.366;-0.222;2024-01-07T03:09:50;102077.27;;;5.52;61.55
75745;BME280;74462;51.366;-0.222;2024-01-07T03:10:54;102076.75;;;5.51;61.23
75745;BME280;74462;51.366;-0.222;2024-01-07T03:11:59;102077.50;;;5.50;61.40
75745;BME280;74462;51.366;-0.222;2024-01-07T03:13:04;102077.14;;;5.51;61.70
75745;BME280;74462;51.366;-0.222;2024-01-07T03:14:09;102078.64;;;5.48;61.21
75745;BME280;74462;51.366;-0.222;2024-01-07T03:15:13;102075.83;;;5.48;61.33
75745;BME280;74462;51.366;-0.222;2024-01-07T03:16:22;102079.08;;;5.46;61.13
75745;BME280;74462;51.366;-0.222;2024-01-07T03:17:26;102080.26;;;5.48;61.45
75745;BME280;74462;51.366;-0.222;2024-01-07T03:18:31;102079.79;;;5.46;61.45
75745;BME280;74462;51.366;-0.222;2024-01-07T03:19:35;102082.77;;;5.41;61.25
75745;BME280;74462;51.366;-0.222;2024-01-07T03:20:40;102081.84;;;5.38;61.32
75745;BME280;74462;51.366;-0.222;2024-01-07T03:21:45;102081.64;;;5.38;61.11
75745;BME280;74462;51.366;-0.222;2024-01-07T03:22:49;102086.19;;;5.39;61.18
75745;BME280;74462;51.366;-0.222;2024-01-07T03:23:54;102085.34;;;5.38;61.17
75745;BME280;74462;51.366;-0.222;2024-01-07T03:24:58;102085.09;;;5.36;60.93
75745;BME280;74462;51.366;-0.222;2024-01-07T03:26:03;102084.60;;;5.35;60.84
75745;BME280;74462;51.366;-0.222;2024-01-07T03:27:07;102084.39;;;5.36;60.83
75745;BME280;74462;51.366;-0.222;2024-01-07T03:28:12;102084.56;;;5.36;60.80
75745;BME280;74462;51.366;-0.222;2024-01-07T03:29:16;102090.02;;;5.36;61.02
75745;BME280;74462;51.366;-0.222;2024-01-07T03:30:20;102087.09;;;5.34;60.86
75745;BME280;74462;51.366;-0.222;2024-01-07T03:31:25;102084.95;;;5.35;60.75
75745;BME280;74462;51.366;-0.222;2024-01-07T03:32:29;102087.23;;;5.35;61.03
75745;BME280;74462;51.366;-0.222;2024-01-07T03:33:34;102086.91;;;5.34;61.08
75745;BME280;74462;51.366;-0.222;2024-01-07T03:34:39;102088.02;;;5.32;60.97
75745;BME280;74462;51.366;-0.222;2024-01-07T03:35:44;102087.86;;;5.32;60.76
75745;BME280;74462;51.366;-0.222;2024-01-07T03:36:48;102087.52;;;5.32;60.82
75745;BME280;74462;51.366;-0.222;2024-01-07T03:37:53;102088.08;;;5.31;60.28
75745;BME280;74462;51.366;-0.222;2024-01-07T03:38:57;102087.27;;;5.29;59.87
75745;BME280;74462;51.366;-0.222;2024-01-07T03:40:02;102091.03;;;5.27;60.10
75745;BME280;74462;51.366;-0.222;2024-01-07T03:41:06;102090.73;;;5.26;60.30
75745;BME280;74462;51.366;-0.222;2024-01-07T03:42:11;102090.33;;;5.28;60.41
75745;BME280;74462;51.366;-0.222;2024-01-07T03:43:16;102093.41;;;5.25;59.98
75745;BME280;74462;51.366;-0.222;2024-01-07T03:44:20;102093.76;;;5.25;59.87
75745;BME280;74462;51.366;-0.222;2024-01-07T03:45:25;102094.96;;;5.26;60.08
75745;BME280;74462;51.366;-0.222;2024-01-07T03:46:29;102094.98;;;5.25;60.06
75745;BME280;74462;51.366;-0.222;2024-01-07T03:47:34;102095.78;;;5.22;59.80
75745;BME280;74462;51.366;-0.222;2024-01-07T03:48:38;102097.66;;;5.24;60.13
75745;BME280;74462;51.366;-0.222;2024-01-07T03:49:43;102096.59;;;5.24;60.36
75745;BME280;74462;51.366;-0.222;2024-01-07T03:50:47;102097.66;;;5.24;60.17
75745;BME280;74462;51.366;-0.222;2024-01-07T03:51:52;102098.26;;;5.22;59.71
75745;BME280;74462;51.366;-0.222;2024-01-07T03:52:56;102098.23;;;5.23;60.13
75745;BME280;74462;51.366;-0.222;2024-01-07T03:54:01;102098.23;;;5.23;60.22
75745;BME280;74462;51.366;-0.222;2024-01-07T03:55:07;102099.45;;;5.24;60.39
75745;BME280;74462;51.366;-0.222;2024-01-07T03:56:11;102097.48;;;5.24;60.39
75745;BME280;74462;51.366;-0.222;2024-01-07T03:57:16;102093.08;;;5.19;60.00
75745;BME280;74462;51.366;-0.222;2024-01-07T03:58:20;102095.65;;;5.16;59.77
75745;BME280;74462;51.366;-0.222;2024-01-07T03:59:24;102095.38;;;5.18;59.82
75745;BME280;74462;51.366;-0.222;2024-01-07T04:00:30;102097.14;;;5.18;60.02
75745;BME280;74462;51.366;-0.222;2024-01-07T04:01:34;102096.05;;;5.19;60.11
75745;BME280;74462;51.366;-0.222;2024-01-07T04:02:38;102097.85;;;5.18;59.94
75745;BME280;74462;51.366;-0.222;2024-01-07T04:03:43;102098.02;;;5.18;59.89
75745;BME280;74462;51.366;-0.222;2024-01-07T04:04:47;102101.39;;;5.18;59.57
75745;BME280;74462;51.366;-0.222;2024-01-07T04:05:52;102100.34;;;5.17;59.62
75745;BME280;74462;51.366;-0.222;2024-01-07T04:06:56;102098.69;;;5.15;59.28
75745;BME280;74462;51.366;-0.222;2024-01-07T04:08:01;102100.65;;;5.14;59.10
75745;BME280;74462;51.366;-0.222;2024-01-07T04:09:05;102102.80;;;5.13;59.38
75745;BME280;74462;51.366;-0.222;2024-01-07T04:10:11;102106.51;;;5.13;59.40
75745;BME280;74462;51.366;-0.222;2024-01-07T04:11:16;102103.00;;;5.12;59.58
75745;BME280;74462;51.366;-0.222;2024-01-07T04:12:20;102102.89;;;5.11;59.74
75745;BME280;74462;51.366;-0.222;2024-01-07T04:13:25;102104.32;;;5.10;59.64
75745;BME280;74462;51.366;-0.222;2024-01-07T04:14:29;102102.34;;;5.06;59.79
75745;BME280;74462;51.366;-0.222;2024-01-07T04:15:36;102103.50;;;5.08;60.18
75745;BME280;74462;51.366;-0.222;2024-01-07T04:16:41;102104.06;;;5.07;59.89
75745;BME280;74462;51.366;-0.222;2024-01-07T04:17:45;102102.32;;;5.07;59.96
75745;BME280;74462;51.366;-0.222;2024-01-07T04:18:50;102104.10;;;5.07;60.05
75745;BME280;74462;51.366;-0.222;2024-01-07T04:19:54;102107.28;;;5.06;59.93
75745;BME280;74462;51.366;-0.222;2024-01-07T04:20:58;102109.05;;;5.05;59.93
75745;BME280;74462;51.366;-0.222;2024-01-07T04:22:03;102105.47;;;5.07;60.26
75745;BME280;74462;51.366;-0.222;2024-01-07T04:23:08;102103.45;;;5.05;60.44
75745;BME280;74462;51.366;-0.222;2024-01-07T04:24:12;102103.04;;;5.07;60.50
75745;BME280;74462;51.366;-0.222;2024-01-07T04:25:17;102102.00;;;5.06;60.51
75745;BME280;74462;51.366;-0.222;2024-01-07T04:26:21;102107.23;;;5.03;60.41
75745;BME280;74462;51.366;-0.222;2024-01-07T04:27:25;102107.02;;;5.03;60.46
75745;BME280;74462;51.366;-0.222;2024-01-07T04:28:30;102107.39;;;5.03;60.44
75745;BME280;74462;51.366;-0.222;2024-01-07T04:29:34;102107.15;;;5.04;60.87
75745;BME280;74462;51.366;-0.222;2024-01-07T04:30:39;102107.71;;;5.04;61.08
75745;BME280;74462;51.366;-0.222;2024-01-07T04:31:43;102107.04;;;5.03;60.89
75745;BME280;74462;51.366;-0.222;2024-01-07T04:32:48;102113.79;;;5.01;60.92
75745;BME280;74462;51.366;-0.222;2024-01-07T04:33:52;102113.24;;;5.02;60.83
75745;BME280;74462;51.366;-0.222;2024-01-07T04:34:56;102113.20;;;4.98;60.92
75745;BME280;74462;51.366;-0.222;2024-01-07T04:36:01;102115.17;;;4.96;60.98
75745;BME280;74462;51.366;-0.222;2024-01-07T04:37:06;102114.43;;;4.98;61.19
75745;BME280;74462;51.366;-0.222;2024-01-07T04:38:10;102117.79;;;4.98;61.07
75745;BME280;74462;51.366;-0.222;2024-01-07T04:39:15;102114.86;;;4.95;61.14
75745;BME280;74462;51.366;-0.222;2024-01-07T04:40:19;102120.63;;;4.96;61.43
75745;BME280;74462;51.366;-0.222;2024-01-07T04:41:24;102118.73;;;4.95;61.58
75745;BME280;74462;51.366;-0.222;2024-01-07T04:42:29;102120.96;;;4.97;61.60
75745;BME280;74462;51.366;-0.222;2024-01-07T04:43:33;102122.91;;;4.97;61.81
75745;BME280;74462;51.366;-0.222;2024-01-07T04:44:37;102119.66;;;4.94;61.49
75745;BME280;74462;51.366;-0.222;2024-01-07T04:45:42;102118.09;;;4.93;61.22
75745;BME280;74462;51.366;-0.222;2024-01-07T04:46:47;102120.13;;;4.90;61.25
75745;BME280;74462;51.366;-0.222;2024-01-07T04:47:51;102120.43;;;4.92;61.35
75745;BME280;74462;51.366;-0.222;2024-01-07T04:48:56;102117.16;;;4.89;61.50
75745;BME280;74462;51.366;-0.222;2024-01-07T04:50:00;102119.61;;;4.90;61.54
75745;BME280;74462;51.366;-0.222;2024-01-07T04:51:06;102119.33;;;4.88;61.49
75745;BME280;74462;51.366;-0.222;2024-01-07T04:52:11;102119.36;;;4.87;61.49
75745;BME280;74462;51.366;-0.222;2024-01-07T04:53:15;102122.32;;;4.88;61.69
75745;BME280;74462;51.366;-0.222;2024-01-07T04:54:19;102123.41;;;4.87;61.98
75745;BME280;74462;51.366;-0.222;2024-01-07T04:55:24;102124.05;;;4.89;61.90
75745;BME280;74462;51.366;-0.222;2024-01-07T04:56:28;102127.38;;;4.89;61.70
75745;BME280;74462;51.366;-0.222;2024-01-07T04:57:33;102125.75;;;4.91;61.66
75745;BME280;74462;51.366;-0.222;2024-01-07T04:58:37;102129.10;;;4.90;61.58
75745;BME280;74462;51.366;-0.222;2024-01-07T04:59:42;102128.03;;;4.90;61.62
75745;BME280;74462;51.366;-0.222;2024-01-07T05:00:46;102130.29;;;4.91;61.63
75745;BME280;74462;51.366;-0.222;2024-01-07T05:01:51;102130.25;;;4.92;61.64
75745;BME280;74462;51.366;-0.222;2024-01-07T05:02:55;102129.98;;;4.90;61.55
75745;BME280;74462;51.366;-0.222;2024-01-07T05:03:59;102129.07;;;4.91;61.70
75745;BME280;74462;51.366;-0.222;2024-01-07T05:05:05;102129.96;;;4.91;61.89
75745;BME280;74462;51.366;-0.222;2024-01-07T05:06:10;102134.98;;;4.88;61.65
75745;BME280;74462;51.366;-0.222;2024-01-07T05:07:15;102133.18;;;4.89;61.91
75745;BME280;74462;51.366;-0.222;2024-01-07T05:08:19;102137.77;;;4.89;61.77
75745;BME280;74462;51.366;-0.222;2024-01-07T05:09:24;102134.94;;;4.89;61.73
75745;BME280;74462;51.366;-0.222;2024-01-07T05:10:28;102135.30;;;4.89;61.78
75745;BME280;74462;51.366;-0.222;2024-01-07T05:11:33;102135.30;;;4.89;61.69
75745;BME280;74462;51.366;-0.222;2024-01-07T05:12:37;102137.07;;;4.89;61.55
75745;BME280;74462;51.366;-0.222;2024-01-07T05:13:41;102133.10;;;4.87;61.43
75745;BME280;74462;51.366;-0.222;2024-01-07T05:14:46;102135.44;;;4.85;61.41
75745;BME280;74462;51.366;-0.222;2024-01-07T05:15:50;102134.11;;;4.83;61.39
75745;BME280;74462;51.366;-0.222;2024-01-07T05:16:56;102132.04;;;4.82;61.91
75745;BME280;74462;51.366;-0.222;2024-01-07T05:18:01;102135.03;;;4.82;61.82
75745;BME280;74462;51.366;-0.222;2024-01-07T05:19:05;102139.29;;;4.80;61.99
75745;BME280;74462;51.366;-0.222;2024-01-07T05:20:11;102143.15;;;4.81;62.01
75745;BME280;74462;51.366;-0.222;2024-01-07T05:21:16;102141.28;;;4.79;61.94
75745;BME280;74462;51.366;-0.222;2024-01-07T05:22:22;102141.66;;;4.78;62.03
75745;BME280;74462;51.366;-0.222;2024-01-07T05:23:26;102144.53;;;4.77;62.08
75745;BME280;74462;51.366;-0.222;2024-01-07T05:24:31;102146.48;;;4.77;62.01
75745;BME280;74462;51.366;-0.222;2024-01-07T05:25:35;102150.67;;;4.77;62.13
75745;BME280;74462;51.366;-0.222;2024-01-07T05:26:44;102147.88;;;4.76;62.10
75745;BME280;74462;51.366;-0.222;2024-01-07T05:27:48;102147.86;;;4.77;61.85
75745;BME280;74462;51.366;-0.222;2024-01-07T05:28:53;102150.99;;;4.78;61.98
75745;BME280;74462;51.366;-0.222;2024-01-07T05:29:57;102148.55;;;4.78;61.81
75745;BME280;74462;51.366;-0.222;2024-01-07T05:31:01;102152.43;;;4.77;61.82
75745;BME280;74462;51.366;-0.222;2024-01-07T05:32:07;102153.14;;;4.77;61.62
75745;BME280;74462;51.366;-0.222;2024-01-07T05:33:11;102155.81;;;4.76;61.72
75745;BME280;74462;51.366;-0.222;2024-01-07T05:34:16;102156.88;;;4.76;61.86
75745;BME280;74462;51.366;-0.222;2024-01-07T05:35:20;102160.09;;;4.75;61.91
75745;BME280;74462;51.366;-0.222;2024-01-07T05:36:25;102163.80;;;4.74;61.81
75745;BME280;74462;51.366;-0.222;2024-01-07T05:37:29;102164.98;;;4.75;62.15